Time;durP1;ratioP1;P1;durP2;ratioP2;P2;SDS_P1;SDS_P2;PMS_P1;PMS_P2;Temp;Humidity;BMP_temperature;BMP_pressure;BME280_temperature;BME280_humidity;BME280_pressure;Samples;Min_cycle;Max_cycle;Signal;HPM_P1;HPM_P2
2022/05/31 00:02:23;;;;;;;20.95;11.57;;;;;;;;;;5151305;27;20533;-49
2022/05/31 00:04:53;;;;;;;21.17;12.07;;;;;;;;;;5151277;27;20041;-51
2022/05/31 00:07:20;;;;;;;24.15;12.40;;;;;;;;;;5151306;27;20050;-51
2022/05/31 00:09:48;;;;;;;17.88;12.18;;;;;;;;;;5151193;27;20035;-49
2022/05/31 00:12:16;;;;;;;82.10;39.65;;;;;;;;;;5151584;27;20042;-53
2022/05/31 00:14:44;;;;;;;42.28;21.90;;;;;;;;;;5151542;27;20050;-48
2022/05/31 00:17:11;;;;;;;25.63;14.48;;;;;;;;;;5151104;27;20043;-48
2022/05/31 00:19:38;;;;;;;23.65;12.63;;;;;;;;;;5151376;27;20062;-51
2022/05/31 00:22:20;;;;;;;20.55;11.98;;;;;;;;;;5150620;27;20034;-52
2022/05/31 00:24:49;;;;;;;18.65;11.63;;;;;;;;;;5151054;27;20057;-49
2022/05/31 00:27:21;;;;;;;20.92;11.55;;;;;;;;;;5150808;27;20042;-54
2022/05/31 00:29:49;;;;;;;23.35;12.85;;;;;;;;;;5132150;27;20042;-48
2022/05/31 00:32:21;;;;;;;19.90;11.68;;;;;;;;;;5150629;27;20098;-49
2022/05/31 00:34:50;;;;;;;27.30;14.60;;;;;;;;;;5150576;27;20038;-46
2022/05/31 00:37:18;;;;;;;37.03;16.90;;;;;;;;;;5151627;27;20050;-49
2022/05/31 00:39:46;;;;;;;24.23;12.98;;;;;;;;;;5151680;27;20039;-52
2022/05/31 00:42:17;;;;;;;20.25;12.65;;;;;;;;;;5152119;27;20091;-52
2022/05/31 00:44:45;;;;;;;22.35;13.30;;;;;;;;;;5151932;27;20068;-49
2022/05/31 00:47:24;;;;;;;19.35;11.90;;;;;;;;;;5151531;27;20049;-51
2022/05/31 00:49:56;;;;;;;24.55;11.77;;;;;;;;;;5151746;27;20397;-49
2022/05/31 00:52:46;;;;;;;60.15;34.00;;;;;;;;;;5133003;27;20540;-51
2022/05/31 00:55:26;;;;;;;24.27;14.85;;;;;;;;;;5151739;27;20047;-47
2022/05/31 00:58:01;;;;;;;18.90;12.15;;;;;;;;;;5132822;27;20043;-51
2022/05/31 01:00:29;;;;;;;19.95;13.20;;;;;;;;;;5151687;27;20550;-47
2022/05/31 01:02:58;;;;;;;19.38;12.27;;;;;;;;;;5133090;27;20095;-50
2022/05/31 01:05:26;;;;;;;27.17;12.82;;;;;;;;;;5132882;27;20043;-48
2022/05/31 01:07:57;;;;;;;22.45;12.35;;;;;;;;;;5151335;27;20105;-47
2022/05/31 01:10:28;;;;;;;21.13;11.73;;;;;;;;;;5132789;27;20053;-47
2022/05/31 01:12:57;;;;;;;21.58;11.93;;;;;;;;;;5150964;27;20053;-50
2022/05/31 01:15:45;;;;;;;23.58;12.40;;;;;;;;;;5150962;27;20111;-54
2022/05/31 01:18:32;;;;;;;23.52;12.77;;;;;;;;;;5151090;27;20057;-53
2022/05/31 01:21:18;;;;;;;18.10;12.13;;;;;;;;;;5151438;27;20076;-48
2022/05/31 01:24:12;;;;;;;39.22;22.58;;;;;;;;;;5131791;27;20054;-50
2022/05/31 01:26:51;;;;;;;25.88;14.88;;;;;;;;;;5149745;27;20042;-48
2022/05/31 01:29:32;;;;;;;23.30;13.25;;;;;;;;;;5130950;27;20042;-49
2022/05/31 01:32:06;;;;;;;21.85;12.23;;;;;;;;;;5149769;27;20038;-51
2022/05/31 01:34:45;;;;;;;22.80;13.20;;;;;;;;;;5149856;27;20042;-49
2022/05/31 01:37:13;;;;;;;23.25;13.00;;;;;;;;;;5128419;27;20116;-53
2022/05/31 01:40:05;;;;;;;22.73;12.48;;;;;;;;;;5128937;27;20095;-49
2022/05/31 01:42:37;;;;;;;27.55;13.10;;;;;;;;;;5110750;27;20129;-51
2022/05/31 01:45:10;;;;;;;23.90;12.45;;;;;;;;;;5128949;27;20039;-48
2022/05/31 01:47:37;;;;;;;23.92;11.95;;;;;;;;;;5128847;27;20039;-50
2022/05/31 01:50:10;;;;;;;25.33;13.10;;;;;;;;;;5128243;27;20039;-49
2022/05/31 01:52:38;;;;;;;27.30;13.57;;;;;;;;;;5128395;27;20438;-48
2022/05/31 01:55:09;;;;;;;22.33;11.50;;;;;;;;;;5128873;27;20328;-51
2022/05/31 01:57:40;;;;;;;23.05;13.48;;;;;;;;;;5110405;27;20066;-50
2022/05/31 02:00:10;;;;;;;23.02;12.82;;;;;;;;;;5110134;27;20047;-51
2022/05/31 02:02:41;;;;;;;;;;;;;;;;;;5129258;27;20097;-47
2022/05/31 02:05:09;;;;;;;22.25;13.35;;;;;;;;;;5137541;27;19930;-47
2022/05/31 02:07:36;;;;;;;18.83;12.30;;;;;;;;;;5130426;27;20039;-50
2022/05/31 02:10:06;;;;;;;26.00;13.15;;;;;;;;;;5130457;27;20035;-51
2022/05/31 02:12:42;;;;;;;33.47;18.33;;;;;;;;;;5149464;27;20061;-49
2022/05/31 02:15:35;;;;;;;24.77;13.80;;;;;;;;;;5130825;27;20046;-50
2022/05/31 02:18:22;;;;;;;26.08;12.38;;;;;;;;;;5148771;27;20062;-47
2022/05/31 02:20:50;;;;;;;21.30;12.57;;;;;;;;;;5148624;27;20383;-50
2022/05/31 02:23:19;;;;;;;23.13;12.88;;;;;;;;;;5130192;27;20039;-53
2022/05/31 02:25:47;;;;;;;25.02;13.38;;;;;;;;;;5148920;27;20485;-49
2022/05/31 02:28:16;;;;;;;24.70;13.88;;;;;;;;;;5148850;27;20047;-45
2022/05/31 02:30:44;;;;;;;23.50;13.73;;;;;;;;;;5148635;27;20045;-49
2022/05/31 02:33:12;;;;;;;22.45;13.00;;;;;;;;;;5148456;27;20103;-51
2022/05/31 02:35:41;;;;;;;20.35;12.48;;;;;;;;;;5130159;27;20616;-49
2022/05/31 02:38:11;;;;;;;25.70;14.85;;;;;;;;;;5148786;27;20669;-51
2022/05/31 02:40:38;;;;;;;25.70;13.55;;;;;;;;;;5148278;27;20039;-48
2022/05/31 02:43:07;;;;;;;29.85;14.23;;;;;;;;;;5130118;27;20030;-51
2022/05/31 02:45:35;;;;;;;29.67;15.50;;;;;;;;;;5129946;27;20042;-48
2022/05/31 02:48:03;;;;;;;25.50;15.18;;;;;;;;;;5129946;27;20462;-47
2022/05/31 02:50:31;;;;;;;27.63;13.90;;;;;;;;;;5130381;27;20050;-50
2022/05/31 02:52:58;;;;;;;28.17;13.23;;;;;;;;;;5148117;27;20064;-52
2022/05/31 02:55:25;;;;;;;25.10;13.30;;;;;;;;;;5129964;27;20049;-51
2022/05/31 02:58:11;;;;;;;28.17;13.38;;;;;;;;;;5148792;27;20110;-50
2022/05/31 03:00:57;;;;;;;25.88;13.90;;;;;;;;;;5133064;27;20520;-47
2022/05/31 03:03:43;;;;;;;28.80;14.32;;;;;;;;;;5152759;27;20055;-50
2022/05/31 03:06:29;;;;;;;24.77;13.55;;;;;;;;;;5152499;27;20050;-51
2022/05/31 03:09:07;;;;;;;27.48;13.85;;;;;;;;;;5133910;27;20397;-50
2022/05/31 03:11:53;;;;;;;22.80;13.60;;;;;;;;;;5152787;27;20121;-48
2022/05/31 03:14:39;;;;;;;29.98;13.05;;;;;;;;;;5152420;27;20077;-48
2022/05/31 03:17:17;;;;;;;26.30;13.55;;;;;;;;;;5152384;27;20030;-51
2022/05/31 03:20:01;;;;;;;26.25;13.63;;;;;;;;;;5152317;27;20043;-49
2022/05/31 03:22:34;;;;;;;22.50;13.13;;;;;;;;;;5133654;27;20043;-49
2022/05/31 03:25:06;;;;;;;25.65;13.65;;;;;;;;;;5152557;27;20043;-51
2022/05/31 03:27:33;;;;;;;20.92;13.85;;;;;;;;;;5131060;27;20055;-51
2022/05/31 03:30:02;;;;;;;95.65;45.28;;;;;;;;;;5141774;27;20072;-52
2022/05/31 03:32:32;;;;;;;27.80;15.60;;;;;;;;;;5152039;27;20034;-49
2022/05/31 03:35:00;;;;;;;25.58;13.60;;;;;;;;;;5152033;27;20561;-52
2022/05/31 03:37:29;;;;;;;22.42;13.00;;;;;;;;;;5151785;27;20027;-52
2022/05/31 03:39:58;;;;;;;22.13;13.68;;;;;;;;;;5151515;27;20039;-50
2022/05/31 03:42:26;;;;;;;25.25;13.27;;;;;;;;;;5133234;27;20130;-50
2022/05/31 03:44:55;;;;;;;23.15;12.65;;;;;;;;;;5133235;27;20043;-48
2022/05/31 03:47:47;;;;;;;25.57;12.80;;;;;;;;;;5133653;27;20066;-51
2022/05/31 03:50:35;;;;;;;22.70;12.02;;;;;;;;;;5133472;27;20290;-49
2022/05/31 03:53:10;;;;;;;23.08;13.10;;;;;;;;;;5133190;27;20043;-52
2022/05/31 03:55:41;;;;;;;32.42;19.75;;;;;;;;;;5133239;27;20049;-50
2022/05/31 03:58:08;;;;;;;26.38;13.88;;;;;;;;;;5133327;27;20042;-49
2022/05/31 04:01:05;;;;;;;21.35;12.95;;;;;;;;;;5137484;27;20042;-49
2022/05/31 04:03:33;;;;;;;25.17;12.93;;;;;;;;;;5132807;27;20091;-47
2022/05/31 04:06:04;;;;;;;24.67;11.40;;;;;;;;;;5133126;27;20043;-51
2022/05/31 04:08:31;;;;;;;20.30;12.20;;;;;;;;;;5132868;27;20046;-47
2022/05/31 04:10:59;;;;;;;27.50;12.18;;;;;;;;;;5132497;27;20042;-50
2022/05/31 04:13:28;;;;;;;22.25;11.98;;;;;;;;;;5131373;27;20046;-50
2022/05/31 04:16:16;;;;;;;19.88;11.98;;;;;;;;;;5151274;27;20049;-49
2022/05/31 04:18:56;;;;;;;24.98;11.57;;;;;;;;;;5132159;27;20719;-49
2022/05/31 04:21:24;;;;;;;20.85;11.82;;;;;;;;;;5128822;27;20035;-52
2022/05/31 04:24:08;;;;;;;27.58;15.60;;;;;;;;;;5131814;27;20560;-49
2022/05/31 04:26:41;;;;;;;28.30;14.52;;;;;;;;;;5150735;27;20084;-48
2022/05/31 04:29:26;;;;;;;20.88;11.50;;;;;;;;;;5150694;27;20520;-51
2022/05/31 04:32:14;;;;;;;19.85;11.38;;;;;;;;;;5150693;27;20134;-52
2022/05/31 04:34:42;;;;;;;22.20;10.90;;;;;;;;;;5151165;27;20661;-50
2022/05/31 04:37:12;;;;;;;21.55;10.35;;;;;;;;;;5132125;27;20050;-49
2022/05/31 04:40:09;;;;;;;20.75;10.45;;;;;;;;;;5132298;27;20779;-53
2022/05/31 04:42:45;;;;;;;24.27;11.38;;;;;;;;;;5150998;27;20133;-50
2022/05/31 04:45:28;;;;;;;18.35;9.70;;;;;;;;;;5132110;27;20042;-48
2022/05/31 04:47:58;;;;;;;20.58;10.10;;;;;;;;;;5132213;27;20034;-48
2022/05/31 04:50:25;;;;;;;19.50;9.40;;;;;;;;;;5150554;27;20460;-50
2022/05/31 04:52:53;;;;;;;17.77;9.88;;;;;;;;;;5131748;27;20039;-50
2022/05/31 04:55:20;;;;;;;33.00;15.05;;;;;;;;;;5131911;27;20122;-49
2022/05/31 04:57:52;;;;;;;30.60;15.73;;;;;;;;;;5131966;27;20030;-52
2022/05/31 05:00:20;;;;;;;18.23;10.50;;;;;;;;;;5132302;27;20042;-52
2022/05/31 05:03:05;;;;;;;18.40;10.05;;;;;;;;;;5150290;27;20120;-51
2022/05/31 05:05:33;;;;;;;17.45;9.63;;;;;;;;;;5131478;27;20046;-49
2022/05/31 05:08:15;;;;;;;15.68;8.60;;;;;;;;;;5149964;27;20072;-51
2022/05/31 05:10:46;;;;;;;14.90;9.38;;;;;;;;;;5131413;27;20750;-48
2022/05/31 05:13:29;;;;;;;18.65;9.88;;;;;;;;;;5149245;27;20094;-49
2022/05/31 05:16:18;;;;;;;22.60;10.00;;;;;;;;;;5117205;27;20047;-49
2022/05/31 05:18:51;;;;;;;18.23;9.30;;;;;;;;;;5131053;27;20051;-50
2022/05/31 05:21:19;;;;;;;15.60;8.95;;;;;;;;;;5131732;27;20074;-51
2022/05/31 05:23:48;;;;;;;15.32;9.35;;;;;;;;;;5150026;27;20050;-48
2022/05/31 05:26:26;;;;;;;17.05;8.73;;;;;;;;;;5129935;27;20126;-49
2022/05/31 05:32:08;;;;;;;14.95;9.10;;;;;;;;;;5130736;27;20038;-51
2022/05/31 05:34:54;;;;;;;16.02;8.57;;;;;;;;;;5149558;27;20414;-48
2022/05/31 05:37:22;;;;;;;15.82;8.48;;;;;;;;;;5130792;27;20042;-50
2022/05/31 05:39:50;;;;;;;14.35;9.23;;;;;;;;;;5130960;27;20039;-51
2022/05/31 05:42:40;;;;;;;17.00;9.10;;;;;;;;;;5131048;27;20039;-50
2022/05/31 05:45:46;;;;;;;16.48;8.70;;;;;;;;;;5128591;27;20042;-50
2022/05/31 05:48:13;;;;;;;14.65;8.68;;;;;;;;;;5131037;27;20073;-50
2022/05/31 05:50:41;;;;;;;17.80;8.07;;;;;;;;;;5130999;27;20050;-51
2022/05/31 05:53:09;;;;;;;20.77;9.15;;;;;;;;;;5149007;27;20054;-50
2022/05/31 05:56:12;;;;;;;14.90;8.77;;;;;;;;;;5150117;27;20058;-48
2022/05/31 05:58:58;;;;;;;14.60;9.13;;;;;;;;;;5150473;27;20060;-50
2022/05/31 06:02:03;;;;;;;17.02;8.40;;;;;;;;;;5104222;27;20051;-48
2022/05/31 06:05:14;;;;;;;15.18;8.93;;;;;;;;;;5138741;27;20034;-49
2022/05/31 06:07:45;;;;;;;13.85;9.05;;;;;;;;;;5150415;27;20307;-48
2022/05/31 06:10:25;;;;;;;18.05;9.43;;;;;;;;;;5131795;27;20050;-49
2022/05/31 06:13:01;;;;;;;56.90;14.20;;;;;;;;;;5149970;27;20129;-49
2022/05/31 06:15:33;;;;;;;13.35;7.63;;;;;;;;;;5131775;27;20053;-51
2022/05/31 06:18:11;;;;;;;17.58;10.13;;;;;;;;;;5115421;27;20397;-52
2022/05/31 06:20:39;;;;;;;43.67;22.35;;;;;;;;;;5131345;27;20053;-50
2022/05/31 06:23:06;;;;;;;17.75;7.88;;;;;;;;;;5131670;27;20405;-50
2022/05/31 06:25:34;;;;;;;13.40;7.10;;;;;;;;;;5150263;27;20043;-50
2022/05/31 06:28:22;;;;;;;14.80;6.93;;;;;;;;;;5131813;27;20035;-46
2022/05/31 06:30:49;;;;;;;13.52;7.32;;;;;;;;;;5131103;27;20046;-50
2022/05/31 06:33:19;;;;;;;173.98;61.58;;;;;;;;;;5131750;27;20039;-50
2022/05/31 06:35:49;;;;;;;99.50;31.80;;;;;;;;;;5131667;27;20031;-51
2022/05/31 06:38:17;;;;;;;19.08;8.32;;;;;;;;;;5131195;27;20138;-51
2022/05/31 06:40:46;;;;;;;15.95;7.13;;;;;;;;;;5131477;27;20497;-50
2022/05/31 06:43:14;;;;;;;19.67;7.82;;;;;;;;;;5149855;27;20046;-48
2022/05/31 06:46:05;;;;;;;17.45;8.13;;;;;;;;;;5150100;27;20057;-52
2022/05/31 06:48:53;;;;;;;16.90;7.65;;;;;;;;;;5149974;27;20152;-52
2022/05/31 06:57:47;;;;;;;12.25;7.05;;;;;;;;;;5149704;27;20046;-49
2022/05/31 07:00:28;;;;;;;15.35;7.30;;;;;;;;;;5130857;27;20046;-51
2022/05/31 07:02:56;;;;;;;14.77;7.45;;;;;;;;;;5130940;27;20067;-51
2022/05/31 07:05:30;;;;;;;13.27;7.32;;;;;;;;;;5131184;27;20118;-52
2022/05/31 07:07:59;;;;;;;15.63;6.80;;;;;;;;;;5131089;27;20045;-50
2022/05/31 07:10:45;;;;;;;13.05;7.18;;;;;;;;;;5149840;27;20089;-51
2022/05/31 07:13:15;;;;;;;13.52;6.90;;;;;;;;;;5149459;27;20046;-49
2022/05/31 07:16:01;;;;;;;14.50;7.15;;;;;;;;;;5149564;27;20179;-50
2022/05/31 07:19:03;;;;;;;12.13;6.65;;;;;;;;;;5149491;27;20130;-52
2022/05/31 07:21:38;;;;;;;15.93;7.90;;;;;;;;;;5131101;27;20043;-49
2022/05/31 07:24:06;;;;;;;14.18;7.03;;;;;;;;;;5130821;27;20051;-50
2022/05/31 07:26:35;;;;;;;12.20;7.00;;;;;;;;;;5149335;27;20035;-50
2022/05/31 07:29:05;;;;;;;19.92;11.35;;;;;;;;;;5130555;27;20458;-51
2022/05/31 07:31:35;;;;;;;20.85;11.27;;;;;;;;;;5130848;27;20557;-49
2022/05/31 07:34:25;;;;;;;14.73;7.38;;;;;;;;;;5130827;27;20077;-49
2022/05/31 07:36:54;;;;;;;13.32;6.47;;;;;;;;;;5130724;27;20126;-50
2022/05/31 07:39:22;;;;;;;13.77;7.03;;;;;;;;;;5130824;27;20070;-53
2022/05/31 07:41:56;;;;;;;15.40;6.75;;;;;;;;;;5130930;27;20600;-51
2022/05/31 07:44:26;;;;;;;13.38;6.57;;;;;;;;;;5130621;27;20043;-51
2022/05/31 07:46:54;;;;;;;12.68;6.80;;;;;;;;;;5130688;27;20038;-52
2022/05/31 07:49:22;;;;;;;15.57;7.13;;;;;;;;;;5132485;27;20046;-50
2022/05/31 07:52:09;;;;;;;18.33;7.00;;;;;;;;;;5152590;27;20079;-49
2022/05/31 07:54:55;;;;;;;13.07;6.60;;;;;;;;;;5153550;27;20174;-51
2022/05/31 08:01:11;;;;;;;42.05;23.17;;;;;;;;;;5088295;28;20534;-47
2022/05/31 08:03:41;;;;;;;15.05;7.78;;;;;;;;;;5120568;27;20062;-47
2022/05/31 08:06:14;;;;;;;13.20;6.82;;;;;;;;;;5152580;27;20737;-54
2022/05/31 08:08:45;;;;;;;13.48;6.20;;;;;;;;;;5152450;27;20154;-49
2022/05/31 08:11:33;;;;;;;15.15;6.53;;;;;;;;;;5152182;27;20046;-49
2022/05/31 08:14:02;;;;;;;11.25;6.40;;;;;;;;;;5152610;27;20065;-55
2022/05/31 08:16:29;;;;;;;12.25;6.93;;;;;;;;;;5152654;27;20088;-49
2022/05/31 08:18:57;;;;;;;10.60;5.80;;;;;;;;;;5152462;27;20651;-50
2022/05/31 08:21:30;;;;;;;11.95;6.82;;;;;;;;;;5151870;27;20038;-48
2022/05/31 08:24:07;;;;;;;13.52;6.05;;;;;;;;;;5151780;27;20095;-51
2022/05/31 08:26:55;;;;;;;13.10;6.28;;;;;;;;;;5151947;27;20199;-48
2022/05/31 08:29:23;;;;;;;11.60;6.53;;;;;;;;;;5151666;27;20046;-46
2022/05/31 08:31:50;;;;;;;12.77;5.72;;;;;;;;;;5151899;27;20035;-50
2022/05/31 08:34:17;;;;;;;11.80;6.15;;;;;;;;;;5152157;27;20095;-52
2022/05/31 08:36:44;;;;;;;11.20;5.85;;;;;;;;;;5152923;27;20042;-47
2022/05/31 08:39:11;;;;;;;12.27;5.60;;;;;;;;;;5153771;27;20046;-48
2022/05/31 08:41:47;;;;;;;13.18;6.20;;;;;;;;;;5153528;27;20034;-49
2022/05/31 08:44:42;;;;;;;9.60;5.47;;;;;;;;;;5153532;27;20512;-47
2022/05/31 08:47:22;;;;;;;10.73;4.95;;;;;;;;;;5153129;27;20100;-51
2022/05/31 08:53:17;;;;;;;11.30;4.95;;;;;;;;;;5137698;27;20115;-49
2022/05/31 08:58:55;;;;;;;11.55;5.03;;;;;;;;;;5134365;27;20093;-51
2022/05/31 09:01:37;;;;;;;9.90;4.80;;;;;;;;;;5153126;27;20126;-49
2022/05/31 09:04:22;;;;;;;8.30;4.50;;;;;;;;;;5153197;27;20038;-49
2022/05/31 09:07:11;;;;;;;10.00;4.60;;;;;;;;;;5153298;27;20038;-50
2022/05/31 09:10:05;;;;;;;8.95;3.97;;;;;;;;;;5153122;27;20117;-48
2022/05/31 09:12:51;;;;;;;7.75;4.43;;;;;;;;;;5153089;27;20454;-48
2022/05/31 09:15:34;;;;;;;7.38;3.70;;;;;;;;;;5153302;27;20038;-48
2022/05/31 09:18:10;;;;;;;9.52;3.95;;;;;;;;;;5132448;27;20118;-50
2022/05/31 09:20:59;;;;;;;10.20;4.45;;;;;;;;;;5132227;27;20039;-48
2022/05/31 09:23:31;;;;;;;8.60;4.03;;;;;;;;;;5131822;27;20471;-48
2022/05/31 09:26:03;;;;;;;6.70;3.42;;;;;;;;;;5132082;27;20424;-51
2022/05/31 09:28:42;;;;;;;7.28;3.65;;;;;;;;;;5132142;27;20375;-49
2022/05/31 09:31:53;;;;;;;9.20;4.30;;;;;;;;;;5151974;27;20081;-48
2022/05/31 09:34:22;;;;;;;11.38;4.82;;;;;;;;;;5126604;27;20533;-52
2022/05/31 09:37:03;;;;;;;9.27;4.10;;;;;;;;;;5152717;27;20397;-52
2022/05/31 09:40:12;;;;;;;6.45;3.42;;;;;;;;;;5152502;27;20042;-47
2022/05/31 09:43:00;;;;;;;6.93;3.67;;;;;;;;;;5152406;27;20046;-48
2022/05/31 09:45:31;;;;;;;6.28;3.53;;;;;;;;;;5152384;27;20117;-49
2022/05/31 09:48:00;;;;;;;6.30;3.30;;;;;;;;;;5152185;27;20037;-50
2022/05/31 09:50:28;;;;;;;6.43;3.47;;;;;;;;;;5152009;27;20042;-49
2022/05/31 09:52:57;;;;;;;6.60;3.58;;;;;;;;;;5152179;27;20091;-52
2022/05/31 09:58:42;;;;;;;6.85;3.78;;;;;;;;;;5152226;27;20038;-47
2022/05/31 10:01:25;;;;;;;6.53;3.58;;;;;;;;;;5152174;27;20043;-49
2022/05/31 10:04:25;;;;;;;7.72;3.30;;;;;;;;;;5133498;27;20512;-51
2022/05/31 10:07:05;;;;;;;6.57;3.42;;;;;;;;;;5151710;27;20045;-50
2022/05/31 10:09:36;;;;;;;7.03;3.45;;;;;;;;;;5151870;27;20035;-51
2022/05/31 10:12:13;;;;;;;5.82;2.85;;;;;;;;;;5152103;27;20042;-49
2022/05/31 10:14:52;;;;;;;7.65;3.20;;;;;;;;;;5153696;27;20078;-48
2022/05/31 10:18:04;;;;;;;5.90;3.45;;;;;;;;;;5153586;27;20039;-49
2022/05/31 10:20:34;;;;;;;6.13;3.00;;;;;;;;;;5049320;28;20150;-50
2022/05/31 10:23:13;;;;;;;7.43;2.97;;;;;;;;;;5142513;27;20053;-49
2022/05/31 10:26:00;;;;;;;5.82;2.90;;;;;;;;;;5153529;27;20129;-52
2022/05/31 10:28:55;;;;;;;6.25;3.33;;;;;;;;;;5153149;27;20103;-51
2022/05/31 10:31:42;;;;;;;5.53;2.83;;;;;;;;;;5099632;27;20051;-48
2022/05/31 10:34:41;;;;;;;5.15;2.70;;;;;;;;;;5132623;27;20043;-53
2022/05/31 10:37:24;;;;;;;7.10;2.88;;;;;;;;;;5114192;27;20096;-49
2022/05/31 10:40:08;;;;;;;7.60;2.78;;;;;;;;;;5132507;27;20039;-48
2022/05/31 10:42:42;;;;;;;7.72;2.88;;;;;;;;;;5132304;27;20110;-50
2022/05/31 10:45:26;;;;;;;7.87;2.60;;;;;;;;;;5132089;27;20088;-51
2022/05/31 10:47:56;;;;;;;12.25;6.60;;;;;;;;;;5132285;27;20054;-48
2022/05/31 10:50:35;;;;;;;7.45;2.80;;;;;;;;;;5131955;27;20076;-52
2022/05/31 10:53:17;;;;;;;6.57;2.63;;;;;;;;;;5132078;28;20095;-50
2022/05/31 10:56:15;;;;;;;4.88;2.47;;;;;;;;;;5131945;28;20047;-52
2022/05/31 10:58:54;;;;;;;8.32;4.60;;;;;;;;;;5132131;27;20732;-49
2022/05/31 11:01:24;;;;;;;5.13;2.72;;;;;;;;;;5132194;28;20039;-48
2022/05/31 11:04:10;;;;;;;6.10;2.25;;;;;;;;;;5132022;27;20035;-50
2022/05/31 11:06:43;;;;;;;5.95;2.20;;;;;;;;;;5132170;28;20042;-50
2022/05/31 11:12:44;;;;;;;4.03;2.10;;;;;;;;;;5132171;28;20126;-53
2022/05/31 11:15:20;;;;;;;3.88;1.90;;;;;;;;;;5131898;28;20138;-51
2022/05/31 11:17:56;;;;;;;6.45;2.33;;;;;;;;;;5131995;28;20039;-48
2022/05/31 11:20:41;;;;;;;3.38;2.17;;;;;;;;;;5131787;27;20096;-46
2022/05/31 11:23:29;;;;;;;5.22;1.90;;;;;;;;;;5133559;27;20084;-50
2022/05/31 11:26:07;;;;;;;6.78;2.35;;;;;;;;;;5135728;27;20054;-49
2022/05/31 11:29:21;;;;;;;4.07;2.08;;;;;;;;;;5136742;27;20051;-57
2022/05/31 11:32:03;;;;;;;3.47;1.65;;;;;;;;;;5156568;27;20050;-48
2022/05/31 11:35:00;;;;;;;4.10;2.00;;;;;;;;;;5143221;27;20394;-53
2022/05/31 11:37:48;;;;;;;4.20;2.10;;;;;;;;;;5135643;27;20039;-47
2022/05/31 11:40:28;;;;;;;3.80;2.28;;;;;;;;;;5117285;27;20039;-50
2022/05/31 11:43:31;;;;;;;4.22;2.17;;;;;;;;;;5135820;27;20054;-48
2022/05/31 11:46:47;;;;;;;8.32;2.40;;;;;;;;;;5135687;27;20039;-52
2022/05/31 11:49:40;;;;;;;4.70;2.67;;;;;;;;;;5135285;27;20090;-49
2022/05/31 11:52:57;;;;;;;4.68;2.13;;;;;;;;;;5135330;27;20050;-49
2022/05/31 11:55:33;;;;;;;4.28;2.33;;;;;;;;;;5090845;27;20051;-51
2022/05/31 11:58:30;;;;;;;9.50;2.50;;;;;;;;;;5135175;27;20050;-49
2022/05/31 12:01:19;;;;;;;5.07;2.00;;;;;;;;;;5135251;27;20039;-51
2022/05/31 12:04:06;;;;;;;5.93;2.10;;;;;;;;;;5135252;27;20039;-51
2022/05/31 12:06:48;;;;;;;7.63;2.53;;;;;;;;;;5135211;27;20054;-52
2022/05/31 12:09:29;;;;;;;2.90;1.83;;;;;;;;;;5135122;27;20043;-49
2022/05/31 12:12:08;;;;;;;3.85;2.13;;;;;;;;;;5135126;27;20038;-50
2022/05/31 12:14:41;;;;;;;5.90;2.10;;;;;;;;;;5134706;27;20513;-50
2022/05/31 12:17:12;;;;;;;3.80;2.15;;;;;;;;;;5134829;27;20058;-51
2022/05/31 12:19:54;;;;;;;3.53;2.13;;;;;;;;;;5117070;27;20061;-52
2022/05/31 12:22:32;;;;;;;11.18;4.00;;;;;;;;;;5135091;27;20035;-51
2022/05/31 12:25:11;;;;;;;5.35;2.65;;;;;;;;;;5134509;27;20465;-55
2022/05/31 12:27:58;;;;;;;4.13;2.13;;;;;;;;;;5134667;27;20039;-50
2022/05/31 12:30:55;;;;;;;3.95;2.50;;;;;;;;;;5148745;27;20066;-52
2022/05/31 12:33:43;;;;;;;3.78;1.80;;;;;;;;;;5126124;27;20062;-49
2022/05/31 12:36:13;;;;;;;4.80;2.20;;;;;;;;;;5154946;27;20047;-51
2022/05/31 12:39:02;;;;;;;12.98;7.63;;;;;;;;;;5154500;27;20043;-53
2022/05/31 12:41:43;;;;;;;8.50;5.13;;;;;;;;;;5155159;27;20069;-53
2022/05/31 12:44:16;;;;;;;3.78;2.22;;;;;;;;;;5155228;27;20474;-48
2022/05/31 12:46:47;;;;;;;;;;;;;;;;;;5155776;27;20512;-50
2022/05/31 12:49:17;;;;;;;4.82;1.70;;;;;;;;;;5154922;27;19923;-52
2022/05/31 12:54:56;;;;;;;6.25;1.80;;;;;;;;;;5154985;27;20038;-47
2022/05/31 13:00:34;;;;;;;3.50;1.63;;;;;;;;;;5154793;27;20062;-48
2022/05/31 13:03:05;;;;;;;13.77;6.07;;;;;;;;;;5154742;27;20485;-52
2022/05/31 13:05:39;;;;;;;4.73;2.43;;;;;;;;;;5154453;27;20038;-52
2022/05/31 13:08:48;;;;;;;3.20;1.50;;;;;;;;;;5154445;27;20309;-48
2022/05/31 13:20:40;;;;;;;4.97;1.67;;;;;;;;;;5135731;27;20509;-50
2022/05/31 13:23:14;;;;;;;2.72;1.38;;;;;;;;;;5154440;27;20119;-50
2022/05/31 13:25:46;;;;;;;4.10;1.80;;;;;;;;;;5154462;27;20046;-49
2022/05/31 13:28:34;;;;;;;66.27;35.20;;;;;;;;;;5154163;27;20505;-49
2022/05/31 13:31:03;;;;;;;11.30;4.45;;;;;;;;;;5153882;27;20091;-53
2022/05/31 13:33:31;;;;;;;11.00;1.63;;;;;;;;;;5154383;27;20034;-52
2022/05/31 13:36:29;;;;;;;3.03;1.52;;;;;;;;;;5154223;27;20049;-48
2022/05/31 13:39:09;;;;;;;2.47;1.20;;;;;;;;;;5126257;27;20055;-50
2022/05/31 13:41:58;;;;;;;4.03;1.65;;;;;;;;;;5133249;27;20118;-50
2022/05/31 13:44:34;;;;;;;7.55;1.48;;;;;;;;;;5133020;27;20043;-54
2022/05/31 13:47:05;;;;;;;3.00;1.27;;;;;;;;;;5132482;27;20041;-51
2022/05/31 13:49:39;;;;;;;8.65;3.70;;;;;;;;;;5133302;27;20043;-52
2022/05/31 13:52:18;;;;;;;13.35;7.10;;;;;;;;;;5133229;27;20036;-51
2022/05/31 13:54:45;;;;;;;18.23;2.33;;;;;;;;;;5132836;27;20049;-53
2022/05/31 13:57:15;;;;;;;4.70;1.50;;;;;;;;;;5151779;27;20043;-51
2022/05/31 13:59:46;;;;;;;5.65;1.52;;;;;;;;;;5153811;27;20117;-51
2022/05/31 14:02:18;;;;;;;5.55;1.50;;;;;;;;;;5153703;27;20038;-54
2022/05/31 14:04:58;;;;;;;4.15;1.67;;;;;;;;;;5141917;27;20042;-53
2022/05/31 14:07:34;;;;;;;2.90;1.35;;;;;;;;;;5114413;27;20045;-53
2022/05/31 14:10:02;;;;;;;3.17;1.70;;;;;;;;;;5133000;27;20038;-54
2022/05/31 14:12:32;;;;;;;2.88;1.23;;;;;;;;;;5132818;27;20410;-51
2022/05/31 14:15:01;;;;;;;1.77;1.13;;;;;;;;;;5132819;27;20069;-53
2022/05/31 14:17:39;;;;;;;2.90;1.20;;;;;;;;;;5132448;27;20035;-54
2022/05/31 14:20:28;;;;;;;4.88;1.50;;;;;;;;;;5132681;27;20110;-51
2022/05/31 14:23:04;;;;;;;1.85;1.35;;;;;;;;;;5132465;27;20452;-49
2022/05/31 14:25:39;;;;;;;3.28;1.65;;;;;;;;;;5137582;27;20039;-53
2022/05/31 14:28:16;;;;;;;3.35;1.40;;;;;;;;;;5153081;27;20043;-53
2022/05/31 14:30:58;;;;;;;2.90;1.13;;;;;;;;;;5152789;27;20143;-55
2022/05/31 14:33:30;;;;;;;5.32;1.70;;;;;;;;;;5132393;27;20060;-54
2022/05/31 14:35:57;;;;;;;4.53;2.10;;;;;;;;;;5132311;27;20092;-52
2022/05/31 14:38:32;;;;;;;3.47;1.60;;;;;;;;;;5132172;27;20085;-53
2022/05/31 14:41:03;;;;;;;7.43;1.65;;;;;;;;;;5132318;27;20062;-49
2022/05/31 14:43:52;;;;;;;5.78;1.52;;;;;;;;;;5132008;27;20038;-49
2022/05/31 14:46:32;;;;;;;3.85;1.67;;;;;;;;;;5132524;27;20051;-55
2022/05/31 14:49:26;;;;;;;7.85;1.55;;;;;;;;;;5132024;27;20043;-53
2022/05/31 14:51:54;;;;;;;3.53;1.50;;;;;;;;;;5132406;27;20488;-49
2022/05/31 14:54:37;;;;;;;4.32;1.30;;;;;;;;;;5132382;28;20084;-52
2022/05/31 14:57:10;;;;;;;2.90;1.43;;;;;;;;;;5131749;27;20112;-49
2022/05/31 14:59:37;;;;;;;5.93;1.80;;;;;;;;;;5132036;28;20271;-55
2022/05/31 15:02:20;;;;;;;3.03;1.48;;;;;;;;;;5132094;28;20036;-52
2022/05/31 15:04:50;;;;;;;3.58;1.60;;;;;;;;;;5132171;27;20038;-51
2022/05/31 15:07:27;;;;;;;5.15;1.50;;;;;;;;;;5131941;28;20039;-55
2022/05/31 15:10:34;;;;;;;3.30;1.70;;;;;;;;;;5132188;28;20092;-54
2022/05/31 15:19:01;;;;;;;3.83;2.10;;;;;;;;;;5132171;28;20422;-55
2022/05/31 15:21:34;;;;;;;3.55;1.60;;;;;;;;;;5132070;28;20043;-53
2022/05/31 15:24:04;;;;;;;3.00;1.80;;;;;;;;;;5131947;28;20051;-52
2022/05/31 15:26:33;;;;;;;3.07;1.60;;;;;;;;;;5131824;28;20074;-54
2022/05/31 15:29:01;;;;;;;2.63;1.60;;;;;;;;;;5133480;27;20042;-52
2022/05/31 15:31:38;;;;;;;4.05;1.73;;;;;;;;;;5152468;27;20034;-52
2022/05/31 15:34:25;;;;;;;3.00;1.70;;;;;;;;;;5152802;27;20049;-52
2022/05/31 15:36:56;;;;;;;2.42;1.85;;;;;;;;;;5152525;27;20039;-54
2022/05/31 15:39:25;;;;;;;4.68;2.00;;;;;;;;;;5152649;27;20493;-52
2022/05/31 15:41:52;;;;;;;5.53;2.13;;;;;;;;;;5134407;27;20400;-52
2022/05/31 15:44:20;;;;;;;5.32;1.90;;;;;;;;;;5152845;27;20137;-52
2022/05/31 15:46:47;;;;;;;2.85;1.95;;;;;;;;;;5152721;27;20039;-51
2022/05/31 15:49:15;;;;;;;5.60;2.00;;;;;;;;;;5152338;27;20095;-51
2022/05/31 15:51:47;;;;;;;4.20;2.25;;;;;;;;;;5133828;27;20442;-52
2022/05/31 15:54:23;;;;;;;3.92;2.13;;;;;;;;;;5152393;27;20038;-49
2022/05/31 15:56:51;;;;;;;2.88;1.73;;;;;;;;;;5133843;27;20118;-49
2022/05/31 15:59:25;;;;;;;4.00;2.35;;;;;;;;;;5134173;27;20039;-52
2022/05/31 16:01:53;;;;;;;5.57;2.67;;;;;;;;;;5152478;27;20072;-54
2022/05/31 16:04:21;;;;;;;4.57;3.67;;;;;;;;;;5152606;27;20039;-48
2022/05/31 16:06:50;;;;;;;4.43;3.47;;;;;;;;;;5152172;27;20046;-54
2022/05/31 16:09:19;;;;;;;5.07;3.22;;;;;;;;;;5152589;27;20038;-54
2022/05/31 16:11:48;;;;;;;7.47;5.13;;;;;;;;;;5155988;27;20051;-52
2022/05/31 16:14:21;;;;;;;8.43;4.65;;;;;;;;;;5155954;27;20043;-48
2022/05/31 16:16:54;;;;;;;;;;;;;;;;;;5137683;27;20439;-52